sensor_id;sensor_type;location;lat;lon;timestamp;P1;durP1;ratioP1;P2;durP2;ratioP2
84723;SDS011;74944;52.322;16.918;2024-01-27T00:00:28;9.73;;;1.92;;
84723;SDS011;74944;52.322;16.918;2024-01-27T00:03:13;13.85;;;2.20;;
84723;SDS011;74944;52.322;16.918;2024-01-27T00:05:39;13.35;;;1.38;;
84723;SDS011;74944;52.322;16.918;2024-01-27T00:08:05;8.48;;;2.20;;
84723;SDS011;74944;52.322;16.918;2024-01-27T00:10:31;14.82;;;2.55;;
84723;SDS011;74944;52.322;16.918;2024-01-27T00:12:56;7.80;;;1.38;;
84723;SDS011;74944;52.322;16.918;2024-01-27T00:15:23;8.10;;;2.05;;
84723;SDS011;74944;52.322;16.918;2024-01-27T00:17:48;9.93;;;2.15;;
84723;SDS011;74944;52.322;16.918;2024-01-27T00:20:14;12.20;;;1.70;;
84723;SDS011;74944;52.322;16.918;2024-01-27T00:22:40;13.00;;;2.00;;
84723;SDS011;74944;52.322;16.918;2024-01-27T00:25:06;12.15;;;1.63;;
84723;SDS011;74944;52.322;16.918;2024-01-27T00:27:31;8.40;;;1.80;;
84723;SDS011;74944;52.322;16.918;2024-01-27T00:29:58;11.68;;;2.45;;
84723;SDS011;74944;52.322;16.918;2024-01-27T00:32:23;11.18;;;1.88;;
84723;SDS011;74944;52.322;16.918;2024-01-27T00:34:49;8.15;;;1.23;;
84723;SDS011;74944;52.322;16.918;2024-01-27T00:37:15;13.65;;;1.95;;
84723;SDS011;74944;52.322;16.918;2024-01-27T00:39:41;11.32;;;1.83;;
84723;SDS011;74944;52.322;16.918;2024-01-27T00:42:06;9.73;;;2.08;;
84723;SDS011;74944;52.322;16.918;2024-01-27T00:44:32;15.32;;;2.08;;
84723;SDS011;74944;52.322;16.918;2024-01-27T00:46:57;9.90;;;1.27;;
84723;SDS011;74944;52.322;16.918;2024-01-27T00:49:23;13.38;;;2.50;;
84723;SDS011;74944;52.322;16.918;2024-01-27T00:51:48;14.65;;;2.83;;
84723;SDS011;74944;52.322;16.918;2024-01-27T00:54:14;15.77;;;2.60;;
84723;SDS011;74944;52.322;16.918;2024-01-27T00:56:40;16.40;;;3.13;;
84723;SDS011;74944;52.322;16.918;2024-01-27T00:59:05;8.57;;;1.67;;
84723;SDS011;74944;52.322;16.918;2024-01-27T01:01:31;17.52;;;3.08;;
84723;SDS011;74944;52.322;16.918;2024-01-27T01:03:57;15.13;;;3.55;;
84723;SDS011;74944;52.322;16.918;2024-01-27T01:06:22;7.50;;;1.83;;
84723;SDS011;74944;52.322;16.918;2024-01-27T01:08:48;12.52;;;2.38;;
84723;SDS011;74944;52.322;16.918;2024-01-27T01:11:14;12.80;;;2.38;;
84723;SDS011;74944;52.322;16.918;2024-01-27T01:13:40;13.80;;;3.38;;
84723;SDS011;74944;52.322;16.918;2024-01-27T01:16:05;13.88;;;2.50;;
84723;SDS011;74944;52.322;16.918;2024-01-27T01:18:33;16.10;;;2.67;;
84723;SDS011;74944;52.322;16.918;2024-01-27T01:20:58;13.77;;;2.60;;
84723;SDS011;74944;52.322;16.918;2024-01-27T01:23:24;12.50;;;1.98;;
84723;SDS011;74944;52.322;16.918;2024-01-27T01:25:50;11.77;;;2.38;;
84723;SDS011;74944;52.322;16.918;2024-01-27T01:28:15;9.32;;;1.70;;
84723;SDS011;74944;52.322;16.918;2024-01-27T01:30:41;15.52;;;2.50;;
84723;SDS011;74944;52.322;16.918;2024-01-27T01:33:06;11.18;;;2.75;;
84723;SDS011;74944;52.322;16.918;2024-01-27T01:35:32;7.40;;;1.70;;
84723;SDS011;74944;52.322;16.918;2024-01-27T01:37:59;17.23;;;2.70;;
84723;SDS011;74944;52.322;16.918;2024-01-27T01:40:24;16.15;;;2.75;;
84723;SDS011;74944;52.322;16.918;2024-01-27T01:42:50;14.00;;;1.98;;
84723;SDS011;74944;52.322;16.918;2024-01-27T01:45:17;8.70;;;2.33;;
84723;SDS011;74944;52.322;16.918;2024-01-27T01:47:43;10.23;;;1.10;;
84723;SDS011;74944;52.322;16.918;2024-01-27T01:50:09;13.75;;;2.35;;
84723;SDS011;74944;52.322;16.918;2024-01-27T01:52:35;13.30;;;1.75;;
84723;SDS011;74944;52.322;16.918;2024-01-27T01:55:03;11.18;;;2.65;;
84723;SDS011;74944;52.322;16.918;2024-01-27T01:57:30;11.20;;;2.08;;
84723;SDS011;74944;52.322;16.918;2024-01-27T01:59:57;8.73;;;1.38;;
84723;SDS011;74944;52.322;16.918;2024-01-27T02:02:22;9.75;;;2.13;;
84723;SDS011;74944;52.322;16.918;2024-01-27T02:04:48;9.63;;;2.35;;
84723;SDS011;74944;52.322;16.918;2024-01-27T02:07:14;12.38;;;1.50;;
84723;SDS011;74944;52.322;16.918;2024-01-27T02:09:40;11.57;;;1.52;;
84723;SDS011;74944;52.322;16.918;2024-01-27T02:12:06;7.30;;;1.42;;
84723;SDS011;74944;52.322;16.918;2024-01-27T02:14:32;10.93;;;1.73;;
84723;SDS011;74944;52.322;16.918;2024-01-27T02:16:58;14.65;;;1.67;;
84723;SDS011;74944;52.322;16.918;2024-01-27T02:19:23;8.73;;;1.38;;
84723;SDS011;74944;52.322;16.918;2024-01-27T02:21:50;10.43;;;1.83;;
84723;SDS011;74944;52.322;16.918;2024-01-27T02:24:15;12.77;;;1.35;;
84723;SDS011;74944;52.322;16.918;2024-01-27T02:26:41;11.38;;;2.47;;
84723;SDS011;74944;52.322;16.918;2024-01-27T02:29:07;7.32;;;1.70;;
84723;SDS011;74944;52.322;16.918;2024-01-27T02:31:33;9.23;;;1.38;;
84723;SDS011;74944;52.322;16.918;2024-01-27T02:33:58;11.68;;;2.47;;
84723;SDS011;74944;52.322;16.918;2024-01-27T02:36:24;8.82;;;1.50;;
84723;SDS011;74944;52.322;16.918;2024-01-27T02:38:50;8.57;;;2.22;;
84723;SDS011;74944;52.322;16.918;2024-01-27T02:41:16;7.90;;;1.50;;
84723;SDS011;74944;52.322;16.918;2024-01-27T02:43:41;11.75;;;2.20;;
84723;SDS011;74944;52.322;16.918;2024-01-27T02:46:08;11.45;;;2.10;;
84723;SDS011;74944;52.322;16.918;2024-01-27T02:48:35;18.42;;;2.47;;
84723;SDS011;74944;52.322;16.918;2024-01-27T02:51:04;19.67;;;1.48;;
84723;SDS011;74944;52.322;16.918;2024-01-27T02:53:30;14.27;;;2.63;;
84723;SDS011;74944;52.322;16.918;2024-01-27T02:55:56;10.23;;;1.58;;
84723;SDS011;74944;52.322;16.918;2024-01-27T02:58:22;13.05;;;1.55;;
84723;SDS011;74944;52.322;16.918;2024-01-27T03:00:48;11.50;;;1.88;;
84723;SDS011;74944;52.322;16.918;2024-01-27T03:03:13;13.73;;;2.33;;
84723;SDS011;74944;52.322;16.918;2024-01-27T03:05:40;15.63;;;3.10;;
84723;SDS011;74944;52.322;16.918;2024-01-27T03:08:06;11.73;;;1.95;;
84723;SDS011;74944;52.322;16.918;2024-01-27T03:10:32;11.93;;;2.00;;
84723;SDS011;74944;52.322;16.918;2024-01-27T03:12:58;13.00;;;2.03;;
84723;SDS011;74944;52.322;16.918;2024-01-27T03:15:25;18.35;;;2.45;;
84723;SDS011;74944;52.322;16.918;2024-01-27T03:17:50;10.93;;;2.22;;
84723;SDS011;74944;52.322;16.918;2024-01-27T03:20:16;13.57;;;1.77;;
84723;SDS011;74944;52.322;16.918;2024-01-27T03:22:42;8.95;;;1.63;;
84723;SDS011;74944;52.322;16.918;2024-01-27T03:25:08;14.10;;;2.13;;
84723;SDS011;74944;52.322;16.918;2024-01-27T03:27:36;12.13;;;1.98;;
84723;SDS011;74944;52.322;16.918;2024-01-27T03:30:02;12.95;;;2.30;;
84723;SDS011;74944;52.322;16.918;2024-01-27T03:32:29;12.07;;;2.28;;
84723;SDS011;74944;52.322;16.918;2024-01-27T03:34:58;8.15;;;1.13;;
84723;SDS011;74944;52.322;16.918;2024-01-27T03:37:24;11.00;;;1.60;;
84723;SDS011;74944;52.322;16.918;2024-01-27T03:39:50;9.48;;;2.30;;
84723;SDS011;74944;52.322;16.918;2024-01-27T03:42:15;14.77;;;1.67;;
84723;SDS011;74944;52.322;16.918;2024-01-27T03:44:41;4.70;;;1.08;;
84723;SDS011;74944;52.322;16.918;2024-01-27T03:47:07;9.93;;;1.60;;
84723;SDS011;74944;52.322;16.918;2024-01-27T03:49:32;8.02;;;2.45;;
84723;SDS011;74944;52.322;16.918;2024-01-27T03:51:58;14.35;;;1.63;;
84723;SDS011;74944;52.322;16.918;2024-01-27T03:54:24;10.40;;;1.67;;
84723;SDS011;74944;52.322;16.918;2024-01-27T03:56:49;12.35;;;1.98;;
84723;SDS011;74944;52.322;16.918;2024-01-27T03:59:15;10.43;;;1.63;;
84723;SDS011;74944;52.322;16.918;2024-01-27T04:01:41;6.75;;;1.52;;
84723;SDS011;74944;52.322;16.918;2024-01-27T04:04:07;13.48;;;2.22;;
84723;SDS011;74944;52.322;16.918;2024-01-27T04:06:39;13.30;;;1.85;;
84723;SDS011;74944;52.322;16.918;2024-01-27T04:09:05;15.75;;;1.73;;
84723;SDS011;74944;52.322;16.918;2024-01-27T04:11:34;12.63;;;2.25;;
84723;SDS011;74944;52.322;16.918;2024-01-27T04:14:01;12.93;;;1.98;;
84723;SDS011;74944;52.322;16.918;2024-01-27T04:16:27;10.23;;;1.88;;
84723;SDS011;74944;52.322;16.918;2024-01-27T04:18:53;10.02;;;1.33;;
84723;SDS011;74944;52.322;16.918;2024-01-27T04:21:19;10.77;;;2.08;;
84723;SDS011;74944;52.322;16.918;2024-01-27T04:23:44;15.85;;;2.25;;
84723;SDS011;74944;52.322;16.918;2024-01-27T04:26:10;10.10;;;1.67;;
84723;SDS011;74944;52.322;16.918;2024-01-27T04:28:36;13.45;;;2.33;;
84723;SDS011;74944;52.322;16.918;2024-01-27T04:31:02;8.48;;;1.60;;
84723;SDS011;74944;52.322;16.918;2024-01-27T04:33:28;11.30;;;2.13;;
84723;SDS011;74944;52.322;16.918;2024-01-27T04:35:53;13.07;;;3.58;;
84723;SDS011;74944;52.322;16.918;2024-01-27T04:38:19;7.78;;;1.90;;
84723;SDS011;74944;52.322;16.918;2024-01-27T04:40:44;15.55;;;2.13;;
84723;SDS011;74944;52.322;16.918;2024-01-27T04:43:14;11.20;;;2.10;;
84723;SDS011;74944;52.322;16.918;2024-01-27T04:45:43;11.38;;;1.77;;
84723;SDS011;74944;52.322;16.918;2024-01-27T04:48:09;14.27;;;2.38;;
84723;SDS011;74944;52.322;16.918;2024-01-27T04:50:34;14.48;;;1.88;;
84723;SDS011;74944;52.322;16.918;2024-01-27T04:53:00;10.60;;;2.45;;
84723;SDS011;74944;52.322;16.918;2024-01-27T04:55:26;16.77;;;2.17;;
84723;SDS011;74944;52.322;16.918;2024-01-27T04:57:52;8.35;;;1.50;;
84723;SDS011;74944;52.322;16.918;2024-01-27T05:00:18;7.15;;;1.27;;
84723;SDS011;74944;52.322;16.918;2024-01-27T05:02:44;7.70;;;1.45;;
84723;SDS011;74944;52.322;16.918;2024-01-27T05:05:11;11.27;;;1.10;;
84723;SDS011;74944;52.322;16.918;2024-01-27T05:07:37;9.27;;;1.77;;
84723;SDS011;74944;52.322;16.918;2024-01-27T05:10:03;9.57;;;1.60;;
84723;SDS011;74944;52.322;16.918;2024-01-27T05:12:30;19.30;;;3.45;;
84723;SDS011;74944;52.322;16.918;2024-01-27T05:14:55;9.73;;;1.45;;
84723;SDS011;74944;52.322;16.918;2024-01-27T05:17:21;9.07;;;1.58;;
84723;SDS011;74944;52.322;16.918;2024-01-27T05:19:46;11.00;;;1.52;;
84723;SDS011;74944;52.322;16.918;2024-01-27T05:22:12;17.00;;;2.38;;
84723;SDS011;74944;52.322;16.918;2024-01-27T05:24:38;11.35;;;2.13;;
84723;SDS011;74944;52.322;16.918;2024-01-27T05:27:03;13.60;;;2.38;;
84723;SDS011;74944;52.322;16.918;2024-01-27T05:29:29;13.70;;;1.67;;
84723;SDS011;74944;52.322;16.918;2024-01-27T05:31:55;12.27;;;1.58;;
84723;SDS011;74944;52.322;16.918;2024-01-27T05:34:20;11.40;;;1.77;;
84723;SDS011;74944;52.322;16.918;2024-01-27T05:36:49;10.27;;;1.90;;
84723;SDS011;74944;52.322;16.918;2024-01-27T05:39:16;11.48;;;2.03;;
84723;SDS011;74944;52.322;16.918;2024-01-27T05:41:41;13.15;;;2.10;;
84723;SDS011;74944;52.322;16.918;2024-01-27T05:44:07;8.40;;;1.92;;
84723;SDS011;74944;52.322;16.918;2024-01-27T05:46:33;12.27;;;2.35;;
84723;SDS011;74944;52.322;16.918;2024-01-27T05:48:58;15.57;;;2.00;;
84723;SDS011;74944;52.322;16.918;2024-01-27T05:51:28;10.55;;;2.13;;
84723;SDS011;74944;52.322;16.918;2024-01-27T05:53:55;15.57;;;2.15;;
84723;SDS011;74944;52.322;16.918;2024-01-27T05:56:23;13.00;;;1.45;;
84723;SDS011;74944;52.322;16.918;2024-01-27T05:58:49;14.20;;;2.80;;
84723;SDS011;74944;52.322;16.918;2024-01-27T06:01:14;16.85;;;2.85;;
84723;SDS011;74944;52.322;16.918;2024-01-27T06:03:42;11.52;;;1.92;;
84723;SDS011;74944;52.322;16.918;2024-01-27T06:06:08;10.38;;;2.38;;
84723;SDS011;74944;52.322;16.918;2024-01-27T06:08:34;10.25;;;1.98;;
84723;SDS011;74944;52.322;16.918;2024-01-27T06:11:00;12.93;;;2.05;;
84723;SDS011;74944;52.322;16.918;2024-01-27T06:13:26;6.93;;;2.03;;
84723;SDS011;74944;52.322;16.918;2024-01-27T06:15:52;10.65;;;1.95;;
84723;SDS011;74944;52.322;16.918;2024-01-27T06:18:17;10.02;;;1.88;;
84723;SDS011;74944;52.322;16.918;2024-01-27T06:20:43;13.73;;;2.17;;
84723;SDS011;74944;52.322;16.918;2024-01-27T06:23:09;9.77;;;2.03;;
84723;SDS011;74944;52.322;16.918;2024-01-27T06:25:35;15.07;;;2.97;;
84723;SDS011;74944;52.322;16.918;2024-01-27T06:28:00;15.07;;;2.70;;
84723;SDS011;74944;52.322;16.918;2024-01-27T06:30:26;13.07;;;2.75;;
84723;SDS011;74944;52.322;16.918;2024-01-27T06:32:52;11.65;;;2.28;;
84723;SDS011;74944;52.322;16.918;2024-01-27T06:35:18;17.70;;;3.65;;
84723;SDS011;74944;52.322;16.918;2024-01-27T06:37:44;17.88;;;2.97;;
84723;SDS011;74944;52.322;16.918;2024-01-27T06:40:10;10.77;;;2.92;;
84723;SDS011;74944;52.322;16.918;2024-01-27T06:42:36;18.15;;;3.33;;
84723;SDS011;74944;52.322;16.918;2024-01-27T06:45:02;12.15;;;2.30;;
84723;SDS011;74944;52.322;16.918;2024-01-27T06:47:28;13.82;;;3.03;;
84723;SDS011;74944;52.322;16.918;2024-01-27T06:49:54;15.02;;;1.88;;
84723;SDS011;74944;52.322;16.918;2024-01-27T06:52:20;8.75;;;2.30;;
84723;SDS011;74944;52.322;16.918;2024-01-27T06:54:45;13.43;;;2.00;;
84723;SDS011;74944;52.322;16.918;2024-01-27T06:57:17;14.50;;;2.45;;
84723;SDS011;74944;52.322;16.918;2024-01-27T06:59:50;7.43;;;1.85;;
84723;SDS011;74944;52.322;16.918;2024-01-27T07:02:24;16.80;;;3.35;;
84723;SDS011;74944;52.322;16.918;2024-01-27T07:04:51;14.77;;;2.33;;
84723;SDS011;74944;52.322;16.918;2024-01-27T07:07:17;13.77;;;2.28;;
84723;SDS011;74944;52.322;16.918;2024-01-27T07:09:47;12.70;;;2.05;;
84723;SDS011;74944;52.322;16.918;2024-01-27T07:12:13;11.38;;;1.88;;
84723;SDS011;74944;52.322;16.918;2024-01-27T07:14:39;13.30;;;2.05;;
84723;SDS011;74944;52.322;16.918;2024-01-27T07:17:04;21.25;;;2.67;;
84723;SDS011;74944;52.322;16.918;2024-01-27T07:19:33;15.60;;;3.05;;
84723;SDS011;74944;52.322;16.918;2024-01-27T07:21:59;13.98;;;2.28;;
84723;SDS011;74944;52.322;16.918;2024-01-27T07:24:29;14.50;;;2.72;;
84723;SDS011;74944;52.322;16.918;2024-01-27T07:26:55;10.75;;;2.38;;
84723;SDS011;74944;52.322;16.918;2024-01-27T07:29:21;12.63;;;2.22;;
84723;SDS011;74944;52.322;16.918;2024-01-27T07:31:47;13.30;;;3.13;;
84723;SDS011;74944;52.322;16.918;2024-01-27T07:34:13;8.15;;;2.35;;
84723;SDS011;74944;52.322;16.918;2024-01-27T07:36:38;12.73;;;3.08;;
84723;SDS011;74944;52.322;16.918;2024-01-27T07:39:04;20.08;;;3.22;;
84723;SDS011;74944;52.322;16.918;2024-01-27T07:41:30;13.23;;;2.67;;
84723;SDS011;74944;52.322;16.918;2024-01-27T07:43:56;15.43;;;3.00;;
84723;SDS011;74944;52.322;16.918;2024-01-27T07:46:22;16.98;;;2.55;;
84723;SDS011;74944;52.322;16.918;2024-01-27T07:48:48;13.98;;;2.45;;
84723;SDS011;74944;52.322;16.918;2024-01-27T07:51:14;10.85;;;2.17;;
84723;SDS011;74944;52.322;16.918;2024-01-27T07:53:41;14.32;;;3.55;;
84723;SDS011;74944;52.322;16.918;2024-01-27T07:56:07;13.73;;;2.50;;
84723;SDS011;74944;52.322;16.918;2024-01-27T07:58:33;13.43;;;2.22;;
84723;SDS011;74944;52.322;16.918;2024-01-27T08:00:58;14.80;;;2.95;;
84723;SDS011;74944;52.322;16.918;2024-01-27T08:03:25;12.75;;;2.60;;
84723;SDS011;74944;52.322;16.918;2024-01-27T08:05:51;14.60;;;2.88;;
84723;SDS011;74944;52.322;16.918;2024-01-27T08:08:16;13.18;;;2.03;;
84723;SDS011;74944;52.322;16.918;2024-01-27T08:10:42;8.57;;;2.80;;
84723;SDS011;74944;52.322;16.918;2024-01-27T08:13:08;12.68;;;3.00;;
84723;SDS011;74944;52.322;16.918;2024-01-27T08:15:34;15.27;;;2.72;;
84723;SDS011;74944;52.322;16.918;2024-01-27T08:17:59;14.85;;;2.95;;
84723;SDS011;74944;52.322;16.918;2024-01-27T08:20:25;10.85;;;2.58;;
84723;SDS011;74944;52.322;16.918;2024-01-27T08:22:50;11.85;;;2.72;;
84723;SDS011;74944;52.322;16.918;2024-01-27T08:25:17;12.05;;;2.15;;
84723;SDS011;74944;52.322;16.918;2024-01-27T08:27:43;13.25;;;3.05;;
84723;SDS011;74944;52.322;16.918;2024-01-27T08:30:09;11.43;;;1.73;;
84723;SDS011;74944;52.322;16.918;2024-01-27T08:32:37;19.65;;;3.28;;
84723;SDS011;74944;52.322;16.918;2024-01-27T08:35:02;15.77;;;2.67;;
84723;SDS011;74944;52.322;16.918;2024-01-27T08:37:28;9.68;;;1.98;;
84723;SDS011;74944;52.322;16.918;2024-01-27T08:39:54;20.83;;;4.70;;
84723;SDS011;74944;52.322;16.918;2024-01-27T08:42:20;15.63;;;2.80;;
84723;SDS011;74944;52.322;16.918;2024-01-27T08:44:46;14.05;;;2.72;;
84723;SDS011;74944;52.322;16.918;2024-01-27T08:47:11;15.57;;;3.05;;
84723;SDS011;74944;52.322;16.918;2024-01-27T08:49:37;15.10;;;3.13;;
84723;SDS011;74944;52.322;16.918;2024-01-27T08:52:03;13.43;;;2.88;;
84723;SDS011;74944;52.322;16.918;2024-01-27T08:54:28;13.20;;;2.70;;
84723;SDS011;74944;52.322;16.918;2024-01-27T08:56:54;18.13;;;3.17;;
84723;SDS011;74944;52.322;16.918;2024-01-27T08:59:20;15.57;;;3.22;;
84723;SDS011;74944;52.322;16.918;2024-01-27T09:01:46;10.15;;;2.65;;
84723;SDS011;74944;52.322;16.918;2024-01-27T09:04:11;17.25;;;3.08;;
84723;SDS011;74944;52.322;16.918;2024-01-27T09:06:37;15.98;;;3.22;;
84723;SDS011;74944;52.322;16.918;2024-01-27T09:09:03;17.02;;;2.78;;
84723;SDS011;74944;52.322;16.918;2024-01-27T09:11:29;17.50;;;3.53;;
84723;SDS011;74944;52.322;16.918;2024-01-27T09:13:55;15.57;;;3.25;;
84723;SDS011;74944;52.322;16.918;2024-01-27T09:16:22;12.38;;;3.20;;
84723;SDS011;74944;52.322;16.918;2024-01-27T09:18:48;16.48;;;2.88;;
84723;SDS011;74944;52.322;16.918;2024-01-27T09:21:15;11.75;;;3.47;;
84723;SDS011;74944;52.322;16.918;2024-01-27T09:23:46;18.55;;;3.58;;
84723;SDS011;74944;52.322;16.918;2024-01-27T09:26:15;20.88;;;4.05;;
84723;SDS011;74944;52.322;16.918;2024-01-27T09:28:43;15.38;;;3.20;;
84723;SDS011;74944;52.322;16.918;2024-01-27T09:31:10;8.85;;;3.30;;
84723;SDS011;74944;52.322;16.918;2024-01-27T09:33:36;20.15;;;3.85;;
84723;SDS011;74944;52.322;16.918;2024-01-27T09:36:02;16.33;;;3.72;;
84723;SDS011;74944;52.322;16.918;2024-01-27T09:38:28;15.13;;;3.15;;
84723;SDS011;74944;52.322;16.918;2024-01-27T09:40:54;20.70;;;4.22;;
84723;SDS011;74944;52.322;16.918;2024-01-27T09:43:20;11.30;;;3.33;;
84723;SDS011;74944;52.322;16.918;2024-01-27T09:45:47;17.70;;;3.90;;
84723;SDS011;74944;52.322;16.918;2024-01-27T09:48:12;15.05;;;3.60;;
84723;SDS011;74944;52.322;16.918;2024-01-27T09:50:40;15.13;;;4.10;;
84723;SDS011;74944;52.322;16.918;2024-01-27T09:53:07;16.00;;;3.08;;
84723;SDS011;74944;52.322;16.918;2024-01-27T09:55:34;16.20;;;4.03;;
84723;SDS011;74944;52.322;16.918;2024-01-27T09:58:00;18.58;;;4.53;;
84723;SDS011;74944;52.322;16.918;2024-01-27T10:00:26;17.40;;;5.63;;
84723;SDS011;74944;52.322;16.918;2024-01-27T10:02:53;17.42;;;3.78;;
84723;SDS011;74944;52.322;16.918;2024-01-27T10:05:20;16.02;;;3.95;;
84723;SDS011;74944;52.322;16.918;2024-01-27T10:07:46;18.85;;;4.53;;
84723;SDS011;74944;52.322;16.918;2024-01-27T10:10:12;23.27;;;3.83;;
84723;SDS011;74944;52.322;16.918;2024-01-27T10:12:41;18.83;;;4.53;;
84723;SDS011;74944;52.322;16.918;2024-01-27T10:15:20;16.90;;;3.63;;
84723;SDS011;74944;52.322;16.918;2024-01-27T10:17:47;16.52;;;3.40;;
84723;SDS011;74944;52.322;16.918;2024-01-27T10:20:12;20.75;;;4.13;;
84723;SDS011;74944;52.322;16.918;2024-01-27T10:22:44;21.13;;;4.18;;
84723;SDS011;74944;52.322;16.918;2024-01-27T10:25:11;21.48;;;3.58;;
84723;SDS011;74944;52.322;16.918;2024-01-27T10:27:37;17.38;;;3.70;;
84723;SDS011;74944;52.322;16.918;2024-01-27T10:30:03;23.70;;;6.72;;
84723;SDS011;74944;52.322;16.918;2024-01-27T10:32:29;18.88;;;5.15;;
84723;SDS011;74944;52.322;16.918;2024-01-27T10:35:07;16.10;;;3.88;;
84723;SDS011;74944;52.322;16.918;2024-01-27T10:37:34;21.65;;;4.47;;
84723;SDS011;74944;52.322;16.918;2024-01-27T10:40:03;16.98;;;4.65;;
84723;SDS011;74944;52.322;16.918;2024-01-27T10:42:30;18.77;;;3.85;;
84723;SDS011;74944;52.322;16.918;2024-01-27T10:45:00;14.63;;;3.65;;
84723;SDS011;74944;52.322;16.918;2024-01-27T10:47:29;17.92;;;4.05;;
84723;SDS011;74944;52.322;16.918;2024-01-27T10:49:57;14.43;;;3.97;;
84723;SDS011;74944;52.322;16.918;2024-01-27T10:52:24;20.02;;;3.45;;
84723;SDS011;74944;52.322;16.918;2024-01-27T10:55:00;22.45;;;3.53;;
84723;SDS011;74944;52.322;16.918;2024-01-27T10:57:31;14.68;;;4.22;;
84723;SDS011;74944;52.322;16.918;2024-01-27T10:59:58;15.35;;;3.60;;
84723;SDS011;74944;52.322;16.918;2024-01-27T11:02:28;20.20;;;4.90;;
84723;SDS011;74944;52.322;16.918;2024-01-27T11:05:00;17.48;;;5.20;;
84723;SDS011;74944;52.322;16.918;2024-01-27T11:07:30;10.05;;;3.30;;
84723;SDS011;74944;52.322;16.918;2024-01-27T11:10:00;16.58;;;3.45;;
84723;SDS011;74944;52.322;16.918;2024-01-27T11:12:26;18.10;;;4.63;;
84723;SDS011;74944;52.322;16.918;2024-01-27T11:14:53;17.65;;;3.95;;
84723;SDS011;74944;52.322;16.918;2024-01-27T11:17:19;15.50;;;4.07;;
84723;SDS011;74944;52.322;16.918;2024-01-27T11:19:45;14.95;;;4.28;;
84723;SDS011;74944;52.322;16.918;2024-01-27T11:22:24;16.52;;;2.95;;
84723;SDS011;74944;52.322;16.918;2024-01-27T11:24:53;13.73;;;3.65;;
84723;SDS011;74944;52.322;16.918;2024-01-27T11:30:30;14.70;;;4.97;;
84723;SDS011;74944;52.322;16.918;2024-01-27T11:33:03;13.73;;;4.32;;
84723;SDS011;74944;52.322;16.918;2024-01-27T11:35:30;13.80;;;3.78;;
84723;SDS011;74944;52.322;16.918;2024-01-27T11:37:55;18.15;;;4.38;;
84723;SDS011;74944;52.322;16.918;2024-01-27T11:40:21;18.30;;;3.65;;
84723;SDS011;74944;52.322;16.918;2024-01-27T11:42:56;15.63;;;3.72;;
84723;SDS011;74944;52.322;16.918;2024-01-27T11:45:23;16.45;;;4.45;;
84723;SDS011;74944;52.322;16.918;2024-01-27T11:47:49;20.92;;;3.90;;
84723;SDS011;74944;52.322;16.918;2024-01-27T11:50:16;11.68;;;3.90;;
84723;SDS011;74944;52.322;16.918;2024-01-27T11:52:43;16.63;;;5.28;;
84723;SDS011;74944;52.322;16.918;2024-01-27T11:55:09;15.18;;;4.07;;
84723;SDS011;74944;52.322;16.918;2024-01-27T11:57:35;17.13;;;3.65;;
84723;SDS011;74944;52.322;16.918;2024-01-27T12:00:01;11.40;;;2.90;;
84723;SDS011;74944;52.322;16.918;2024-01-27T12:02:27;13.30;;;3.15;;
84723;SDS011;74944;52.322;16.918;2024-01-27T12:04:52;11.85;;;3.08;;
84723;SDS011;74944;52.322;16.918;2024-01-27T12:07:20;14.05;;;3.72;;
84723;SDS011;74944;52.322;16.918;2024-01-27T12:09:48;15.13;;;4.53;;
84723;SDS011;74944;52.322;16.918;2024-01-27T12:12:14;13.10;;;3.33;;
84723;SDS011;74944;52.322;16.918;2024-01-27T12:14:45;12.48;;;3.20;;
84723;SDS011;74944;52.322;16.918;2024-01-27T12:17:12;22.67;;;3.88;;
84723;SDS011;74944;52.322;16.918;2024-01-27T12:19:37;17.20;;;3.75;;
84723;SDS011;74944;52.322;16.918;2024-01-27T12:22:04;18.08;;;4.38;;
84723;SDS011;74944;52.322;16.918;2024-01-27T12:24:30;18.00;;;5.20;;
84723;SDS011;74944;52.322;16.918;2024-01-27T12:26:58;17.55;;;4.38;;
84723;SDS011;74944;52.322;16.918;2024-01-27T12:29:25;18.73;;;4.30;;
84723;SDS011;74944;52.322;16.918;2024-01-27T12:31:50;16.77;;;3.45;;
84723;SDS011;74944;52.322;16.918;2024-01-27T12:34:17;14.25;;;2.65;;
84723;SDS011;74944;52.322;16.918;2024-01-27T12:36:44;12.18;;;3.42;;
84723;SDS011;74944;52.322;16.918;2024-01-27T12:39:10;13.70;;;3.70;;
84723;SDS011;74944;52.322;16.918;2024-01-27T12:41:36;12.68;;;2.55;;
84723;SDS011;74944;52.322;16.918;2024-01-27T12:44:01;15.93;;;3.42;;
84723;SDS011;74944;52.322;16.918;2024-01-27T12:46:28;8.07;;;2.17;;
84723;SDS011;74944;52.322;16.918;2024-01-27T12:48:53;16.40;;;3.40;;
84723;SDS011;74944;52.322;16.918;2024-01-27T12:51:19;14.38;;;2.65;;
84723;SDS011;74944;52.322;16.918;2024-01-27T12:53:45;19.63;;;3.05;;
84723;SDS011;74944;52.322;16.918;2024-01-27T12:56:12;15.38;;;2.75;;
84723;SDS011;74944;52.322;16.918;2024-01-27T12:58:39;17.95;;;4.43;;
84723;SDS011;74944;52.322;16.918;2024-01-27T13:01:06;17.23;;;4.10;;
84723;SDS011;74944;52.322;16.918;2024-01-27T13:03:32;17.95;;;3.63;;
84723;SDS011;74944;52.322;16.918;2024-01-27T13:06:00;21.80;;;5.65;;
84723;SDS011;74944;52.322;16.918;2024-01-27T13:08:26;16.13;;;3.95;;
84723;SDS011;74944;52.322;16.918;2024-01-27T13:10:52;15.23;;;2.47;;
84723;SDS011;74944;52.322;16.918;2024-01-27T13:13:19;16.70;;;3.10;;
84723;SDS011;74944;52.322;16.918;2024-01-27T13:15:45;16.35;;;3.95;;
84723;SDS011;74944;52.322;16.918;2024-01-27T13:18:10;12.18;;;3.10;;
84723;SDS011;74944;52.322;16.918;2024-01-27T13:20:36;14.60;;;3.13;;
84723;SDS011;74944;52.322;16.918;2024-01-27T13:23:02;14.48;;;4.05;;
84723;SDS011;74944;52.322;16.918;2024-01-27T13:25:28;20.40;;;3.75;;
84723;SDS011;74944;52.322;16.918;2024-01-27T13:27:53;13.63;;;3.90;;
84723;SDS011;74944;52.322;16.918;2024-01-27T13:30:19;17.85;;;3.60;;
84723;SDS011;74944;52.322;16.918;2024-01-27T13:32:45;15.95;;;2.92;;
84723;SDS011;74944;52.322;16.918;2024-01-27T13:35:11;15.13;;;3.65;;
84723;SDS011;74944;52.322;16.918;2024-01-27T13:37:36;20.58;;;5.07;;
84723;SDS011;74944;52.322;16.918;2024-01-27T13:40:03;16.65;;;3.50;;
84723;SDS011;74944;52.322;16.918;2024-01-27T13:42:30;14.75;;;3.20;;
84723;SDS011;74944;52.322;16.918;2024-01-27T13:44:56;16.23;;;3.67;;
84723;SDS011;74944;52.322;16.918;2024-01-27T13:47:22;17.45;;;4.18;;
84723;SDS011;74944;52.322;16.918;2024-01-27T13:49:48;20.55;;;4.85;;
84723;SDS011;74944;52.322;16.918;2024-01-27T13:52:13;14.15;;;4.22;;
84723;SDS011;74944;52.322;16.918;2024-01-27T13:54:39;13.40;;;3.40;;
84723;SDS011;74944;52.322;16.918;2024-01-27T13:57:05;17.02;;;5.60;;
84723;SDS011;74944;52.322;16.918;2024-01-27T13:59:31;14.77;;;3.45;;
84723;SDS011;74944;52.322;16.918;2024-01-27T14:01:58;18.90;;;5.30;;
84723;SDS011;74944;52.322;16.918;2024-01-27T14:04:24;14.50;;;4.82;;
84723;SDS011;74944;52.322;16.918;2024-01-27T14:06:51;17.75;;;4.38;;
84723;SDS011;74944;52.322;16.918;2024-01-27T14:09:19;15.38;;;4.72;;
84723;SDS011;74944;52.322;16.918;2024-01-27T14:11:46;12.55;;;3.65;;
84723;SDS011;74944;52.322;16.918;2024-01-27T14:14:12;24.92;;;8.88;;
84723;SDS011;74944;52.322;16.918;2024-01-27T14:16:38;12.45;;;3.70;;
84723;SDS011;74944;52.322;16.918;2024-01-27T14:19:05;13.98;;;4.15;;
84723;SDS011;74944;52.322;16.918;2024-01-27T14:21:31;19.15;;;4.35;;